sensor_id;sensor_type;location;lat;lon;timestamp;P1;durP1;ratioP1;P2;durP2;ratioP2
45342;SDS011;31077;50.872;4.352;2023-02-10T00:01:19;18.33;;;9.60;;
45342;SDS011;31077;50.872;4.352;2023-02-10T00:03:52;15.10;;;8.93;;
45342;SDS011;31077;50.872;4.352;2023-02-10T00:06:19;12.75;;;10.48;;
45342;SDS011;31077;50.872;4.352;2023-02-10T00:08:48;12.05;;;9.50;;
45342;SDS011;31077;50.872;4.352;2023-02-10T00:11:18;10.70;;;8.93;;
45342;SDS011;31077;50.872;4.352;2023-02-10T00:13:45;12.73;;;9.40;;
45342;SDS011;31077;50.872;4.352;2023-02-10T00:16:12;11.95;;;9.95;;
45342;SDS011;31077;50.872;4.352;2023-02-10T00:18:40;12.40;;;9.75;;
45342;SDS011;31077;50.872;4.352;2023-02-10T00:21:07;14.88;;;10.52;;
45342;SDS011;31077;50.872;4.352;2023-02-10T00:23:33;11.23;;;9.75;;
45342;SDS011;31077;50.872;4.352;2023-02-10T00:26:02;14.48;;;10.63;;
45342;SDS011;31077;50.872;4.352;2023-02-10T00:28:32;13.13;;;9.85;;
45342;SDS011;31077;50.872;4.352;2023-02-10T00:30:59;12.07;;;9.75;;
45342;SDS011;31077;50.872;4.352;2023-02-10T00:33:30;12.13;;;9.52;;
45342;SDS011;31077;50.872;4.352;2023-02-10T00:35:56;10.80;;;9.35;;
45342;SDS011;31077;50.872;4.352;2023-02-10T00:38:21;14.10;;;9.88;;
45342;SDS011;31077;50.872;4.352;2023-02-10T00:40:47;12.32;;;10.13;;
45342;SDS011;31077;50.872;4.352;2023-02-10T00:43:13;13.25;;;10.02;;
45342;SDS011;31077;50.872;4.352;2023-02-10T00:45:39;11.52;;;9.98;;
45342;SDS011;31077;50.872;4.352;2023-02-10T00:48:05;11.02;;;8.98;;
45342;SDS011;31077;50.872;4.352;2023-02-10T00:50:31;12.70;;;9.63;;
45342;SDS011;31077;50.872;4.352;2023-02-10T00:52:56;12.00;;;9.15;;
45342;SDS011;31077;50.872;4.352;2023-02-10T00:55:22;11.77;;;9.77;;
45342;SDS011;31077;50.872;4.352;2023-02-10T00:57:48;12.48;;;10.15;;
45342;SDS011;31077;50.872;4.352;2023-02-10T01:00:14;13.38;;;10.75;;
45342;SDS011;31077;50.872;4.352;2023-02-10T01:02:40;12.52;;;9.32;;
45342;SDS011;31077;50.872;4.352;2023-02-10T01:05:06;13.32;;;10.45;;
45342;SDS011;31077;50.872;4.352;2023-02-10T01:07:32;11.65;;;10.13;;
45342;SDS011;31077;50.872;4.352;2023-02-10T01:09:57;12.68;;;9.27;;
45342;SDS011;31077;50.872;4.352;2023-02-10T01:12:23;11.80;;;8.82;;
45342;SDS011;31077;50.872;4.352;2023-02-10T01:14:49;11.48;;;9.88;;
45342;SDS011;31077;50.872;4.352;2023-02-10T01:17:15;11.77;;;9.63;;
45342;SDS011;31077;50.872;4.352;2023-02-10T01:19:41;13.70;;;10.35;;
45342;SDS011;31077;50.872;4.352;2023-02-10T01:22:07;12.73;;;10.05;;
45342;SDS011;31077;50.872;4.352;2023-02-10T01:24:33;11.13;;;9.43;;
45342;SDS011;31077;50.872;4.352;2023-02-10T01:26:58;12.45;;;9.77;;
45342;SDS011;31077;50.872;4.352;2023-02-10T01:29:24;14.63;;;11.00;;
45342;SDS011;31077;50.872;4.352;2023-02-10T01:31:50;12.35;;;9.75;;
45342;SDS011;31077;50.872;4.352;2023-02-10T01:34:15;12.77;;;10.52;;
45342;SDS011;31077;50.872;4.352;2023-02-10T01:36:41;12.68;;;10.02;;
45342;SDS011;31077;50.872;4.352;2023-02-10T01:39:07;14.18;;;11.10;;
45342;SDS011;31077;50.872;4.352;2023-02-10T01:41:34;11.60;;;9.45;;
45342;SDS011;31077;50.872;4.352;2023-02-10T01:46:29;12.05;;;9.75;;
45342;SDS011;31077;50.872;4.352;2023-02-10T01:49:26;12.18;;;10.35;;
45342;SDS011;31077;50.872;4.352;2023-02-10T01:51:56;12.13;;;10.10;;
45342;SDS011;31077;50.872;4.352;2023-02-10T01:54:29;12.77;;;9.93;;
45342;SDS011;31077;50.872;4.352;2023-02-10T01:56:58;12.18;;;9.80;;
45342;SDS011;31077;50.872;4.352;2023-02-10T01:59:30;12.38;;;10.40;;
45342;SDS011;31077;50.872;4.352;2023-02-10T02:02:00;12.63;;;10.85;;
45342;SDS011;31077;50.872;4.352;2023-02-10T02:04:33;12.77;;;9.98;;
45342;SDS011;31077;50.872;4.352;2023-02-10T02:07:06;16.00;;;11.52;;
45342;SDS011;31077;50.872;4.352;2023-02-10T02:09:32;11.80;;;9.45;;
45342;SDS011;31077;50.872;4.352;2023-02-10T02:12:04;13.48;;;10.88;;
45342;SDS011;31077;50.872;4.352;2023-02-10T02:20:45;13.73;;;10.32;;
45342;SDS011;31077;50.872;4.352;2023-02-10T02:29:21;12.43;;;10.40;;
45342;SDS011;31077;50.872;4.352;2023-02-10T02:34:50;12.60;;;10.10;;
45342;SDS011;31077;50.872;4.352;2023-02-10T02:37:34;13.60;;;10.82;;
45342;SDS011;31077;50.872;4.352;2023-02-10T02:40:05;14.32;;;10.75;;
45342;SDS011;31077;50.872;4.352;2023-02-10T02:42:32;14.48;;;10.65;;
45342;SDS011;31077;50.872;4.352;2023-02-10T02:45:00;12.98;;;10.15;;
45342;SDS011;31077;50.872;4.352;2023-02-10T02:50:43;13.00;;;10.50;;
45342;SDS011;31077;50.872;4.352;2023-02-10T02:56:11;12.68;;;10.50;;
45342;SDS011;31077;50.872;4.352;2023-02-10T03:01:43;14.50;;;11.40;;
45342;SDS011;31077;50.872;4.352;2023-02-10T03:04:13;14.15;;;11.27;;
45342;SDS011;31077;50.872;4.352;2023-02-10T03:06:41;13.55;;;10.35;;
45342;SDS011;31077;50.872;4.352;2023-02-10T03:09:07;13.60;;;11.00;;
45342;SDS011;31077;50.872;4.352;2023-02-10T03:11:33;14.32;;;10.93;;
45342;SDS011;31077;50.872;4.352;2023-02-10T03:13:59;15.77;;;10.82;;
45342;SDS011;31077;50.872;4.352;2023-02-10T03:16:25;15.77;;;12.10;;
45342;SDS011;31077;50.872;4.352;2023-02-10T03:18:51;14.85;;;11.93;;
45342;SDS011;31077;50.872;4.352;2023-02-10T03:21:17;15.95;;;11.18;;
45342;SDS011;31077;50.872;4.352;2023-02-10T03:23:43;14.18;;;10.55;;
45342;SDS011;31077;50.872;4.352;2023-02-10T03:26:09;14.55;;;10.27;;
45342;SDS011;31077;50.872;4.352;2023-02-10T03:28:35;15.23;;;11.45;;
45342;SDS011;31077;50.872;4.352;2023-02-10T03:31:04;13.55;;;11.05;;
45342;SDS011;31077;50.872;4.352;2023-02-10T03:33:32;15.80;;;12.15;;
45342;SDS011;31077;50.872;4.352;2023-02-10T03:35:58;15.32;;;11.82;;
45342;SDS011;31077;50.872;4.352;2023-02-10T03:38:25;15.70;;;11.82;;
45342;SDS011;31077;50.872;4.352;2023-02-10T03:40:51;15.73;;;11.30;;
45342;SDS011;31077;50.872;4.352;2023-02-10T03:43:18;14.23;;;10.55;;
45342;SDS011;31077;50.872;4.352;2023-02-10T03:45:45;15.00;;;10.65;;
45342;SDS011;31077;50.872;4.352;2023-02-10T03:48:11;13.90;;;11.25;;
45342;SDS011;31077;50.872;4.352;2023-02-10T03:50:37;17.98;;;12.05;;
45342;SDS011;31077;50.872;4.352;2023-02-10T03:53:04;15.98;;;10.93;;
45342;SDS011;31077;50.872;4.352;2023-02-10T03:55:30;16.77;;;12.20;;
45342;SDS011;31077;50.872;4.352;2023-02-10T03:57:56;14.90;;;11.15;;
45342;SDS011;31077;50.872;4.352;2023-02-10T04:00:22;17.55;;;12.25;;
45342;SDS011;31077;50.872;4.352;2023-02-10T04:02:48;14.75;;;10.95;;
45342;SDS011;31077;50.872;4.352;2023-02-10T04:05:15;16.77;;;12.77;;
45342;SDS011;31077;50.872;4.352;2023-02-10T04:07:40;15.98;;;12.65;;
45342;SDS011;31077;50.872;4.352;2023-02-10T04:10:06;14.85;;;11.30;;
45342;SDS011;31077;50.872;4.352;2023-02-10T04:12:32;15.65;;;12.25;;
45342;SDS011;31077;50.872;4.352;2023-02-10T04:14:58;18.10;;;12.55;;
45342;SDS011;31077;50.872;4.352;2023-02-10T04:17:24;17.67;;;12.65;;
45342;SDS011;31077;50.872;4.352;2023-02-10T04:19:50;15.20;;;11.95;;
45342;SDS011;31077;50.872;4.352;2023-02-10T04:22:16;17.65;;;12.15;;
45342;SDS011;31077;50.872;4.352;2023-02-10T04:24:41;15.88;;;12.20;;
45342;SDS011;31077;50.872;4.352;2023-02-10T04:27:07;19.92;;;13.25;;
45342;SDS011;31077;50.872;4.352;2023-02-10T04:29:33;18.27;;;12.77;;
45342;SDS011;31077;50.872;4.352;2023-02-10T04:32:03;18.40;;;11.88;;
45342;SDS011;31077;50.872;4.352;2023-02-10T04:34:30;18.50;;;12.80;;
45342;SDS011;31077;50.872;4.352;2023-02-10T04:36:56;19.00;;;13.55;;
45342;SDS011;31077;50.872;4.352;2023-02-10T04:39:22;16.48;;;13.13;;
45342;SDS011;31077;50.872;4.352;2023-02-10T04:41:48;19.90;;;13.32;;
45342;SDS011;31077;50.872;4.352;2023-02-10T04:44:14;17.80;;;12.55;;
45342;SDS011;31077;50.872;4.352;2023-02-10T04:46:39;17.00;;;11.93;;
45342;SDS011;31077;50.872;4.352;2023-02-10T04:49:05;19.30;;;13.77;;
45342;SDS011;31077;50.872;4.352;2023-02-10T04:51:31;20.30;;;14.40;;
45342;SDS011;31077;50.872;4.352;2023-02-10T04:53:57;17.52;;;13.68;;
45342;SDS011;31077;50.872;4.352;2023-02-10T04:56:23;17.85;;;13.27;;
45342;SDS011;31077;50.872;4.352;2023-02-10T04:58:49;17.48;;;13.30;;
45342;SDS011;31077;50.872;4.352;2023-02-10T05:01:14;18.63;;;13.05;;
45342;SDS011;31077;50.872;4.352;2023-02-10T05:03:40;16.98;;;12.90;;
45342;SDS011;31077;50.872;4.352;2023-02-10T05:06:11;18.13;;;13.93;;
45342;SDS011;31077;50.872;4.352;2023-02-10T05:08:38;18.77;;;13.00;;
45342;SDS011;31077;50.872;4.352;2023-02-10T05:11:09;16.83;;;12.35;;
45342;SDS011;31077;50.872;4.352;2023-02-10T05:13:36;19.65;;;13.23;;
45342;SDS011;31077;50.872;4.352;2023-02-10T05:16:02;18.85;;;13.23;;
45342;SDS011;31077;50.872;4.352;2023-02-10T05:18:29;21.23;;;15.00;;
45342;SDS011;31077;50.872;4.352;2023-02-10T05:20:56;19.17;;;13.73;;
45342;SDS011;31077;50.872;4.352;2023-02-10T05:23:22;18.65;;;13.55;;
45342;SDS011;31077;50.872;4.352;2023-02-10T05:25:48;17.73;;;13.38;;
45342;SDS011;31077;50.872;4.352;2023-02-10T05:28:15;20.52;;;14.48;;
45342;SDS011;31077;50.872;4.352;2023-02-10T05:30:40;18.50;;;13.25;;
45342;SDS011;31077;50.872;4.352;2023-02-10T05:33:06;19.10;;;13.48;;
45342;SDS011;31077;50.872;4.352;2023-02-10T05:35:32;18.52;;;13.15;;
45342;SDS011;31077;50.872;4.352;2023-02-10T05:37:58;17.10;;;13.35;;
45342;SDS011;31077;50.872;4.352;2023-02-10T05:40:26;18.92;;;14.00;;
45342;SDS011;31077;50.872;4.352;2023-02-10T05:42:56;18.88;;;13.52;;
45342;SDS011;31077;50.872;4.352;2023-02-10T05:45:22;18.25;;;13.15;;
45342;SDS011;31077;50.872;4.352;2023-02-10T05:47:48;19.15;;;14.63;;
45342;SDS011;31077;50.872;4.352;2023-02-10T05:50:15;21.30;;;15.05;;
45342;SDS011;31077;50.872;4.352;2023-02-10T05:52:41;17.92;;;13.75;;
45342;SDS011;31077;50.872;4.352;2023-02-10T05:55:07;17.35;;;12.93;;
45342;SDS011;31077;50.872;4.352;2023-02-10T05:57:33;17.48;;;13.30;;
45342;SDS011;31077;50.872;4.352;2023-02-10T05:59:59;17.17;;;13.50;;
45342;SDS011;31077;50.872;4.352;2023-02-10T06:02:25;18.15;;;13.70;;
45342;SDS011;31077;50.872;4.352;2023-02-10T06:04:52;19.55;;;12.68;;
45342;SDS011;31077;50.872;4.352;2023-02-10T06:07:17;18.65;;;13.48;;
45342;SDS011;31077;50.872;4.352;2023-02-10T06:09:43;18.20;;;13.80;;
45342;SDS011;31077;50.872;4.352;2023-02-10T06:12:09;17.55;;;13.40;;
45342;SDS011;31077;50.872;4.352;2023-02-10T06:14:35;18.13;;;13.73;;
45342;SDS011;31077;50.872;4.352;2023-02-10T06:17:03;18.17;;;12.93;;
45342;SDS011;31077;50.872;4.352;2023-02-10T06:19:34;15.68;;;12.70;;
45342;SDS011;31077;50.872;4.352;2023-02-10T06:22:04;15.88;;;13.27;;
45342;SDS011;31077;50.872;4.352;2023-02-10T06:24:31;17.65;;;13.23;;
45342;SDS011;31077;50.872;4.352;2023-02-10T06:26:57;16.48;;;13.27;;
45342;SDS011;31077;50.872;4.352;2023-02-10T06:29:23;16.48;;;13.07;;
45342;SDS011;31077;50.872;4.352;2023-02-10T06:31:51;20.23;;;13.52;;
45342;SDS011;31077;50.872;4.352;2023-02-10T06:34:17;18.52;;;13.73;;
45342;SDS011;31077;50.872;4.352;2023-02-10T06:36:43;18.90;;;13.70;;
45342;SDS011;31077;50.872;4.352;2023-02-10T06:39:09;18.17;;;13.45;;
45342;SDS011;31077;50.872;4.352;2023-02-10T06:41:34;18.80;;;12.68;;
45342;SDS011;31077;50.872;4.352;2023-02-10T06:44:00;16.17;;;13.07;;
45342;SDS011;31077;50.872;4.352;2023-02-10T06:46:26;20.48;;;14.30;;
45342;SDS011;31077;50.872;4.352;2023-02-10T06:48:52;16.35;;;12.80;;
45342;SDS011;31077;50.872;4.352;2023-02-10T06:51:18;17.42;;;13.10;;
45342;SDS011;31077;50.872;4.352;2023-02-10T06:53:44;15.13;;;12.85;;
45342;SDS011;31077;50.872;4.352;2023-02-10T06:56:10;18.63;;;13.55;;
45342;SDS011;31077;50.872;4.352;2023-02-10T06:58:37;16.92;;;14.10;;
45342;SDS011;31077;50.872;4.352;2023-02-10T07:01:10;17.67;;;13.18;;
45342;SDS011;31077;50.872;4.352;2023-02-10T07:03:38;16.27;;;12.90;;
45342;SDS011;31077;50.872;4.352;2023-02-10T07:06:04;15.27;;;11.95;;
45342;SDS011;31077;50.872;4.352;2023-02-10T07:08:31;17.83;;;12.68;;
45342;SDS011;31077;50.872;4.352;2023-02-10T07:10:57;15.35;;;12.18;;
45342;SDS011;31077;50.872;4.352;2023-02-10T07:13:24;17.13;;;12.55;;
45342;SDS011;31077;50.872;4.352;2023-02-10T07:15:50;14.80;;;12.23;;
45342;SDS011;31077;50.872;4.352;2023-02-10T07:18:15;15.90;;;13.10;;
45342;SDS011;31077;50.872;4.352;2023-02-10T07:20:43;16.20;;;11.88;;
45342;SDS011;31077;50.872;4.352;2023-02-10T07:23:08;18.05;;;13.25;;
45342;SDS011;31077;50.872;4.352;2023-02-10T07:25:34;15.45;;;12.75;;
45342;SDS011;31077;50.872;4.352;2023-02-10T07:28:00;17.70;;;13.52;;
45342;SDS011;31077;50.872;4.352;2023-02-10T07:30:26;17.20;;;13.13;;
45342;SDS011;31077;50.872;4.352;2023-02-10T07:32:52;15.60;;;12.23;;
45342;SDS011;31077;50.872;4.352;2023-02-10T07:35:18;16.60;;;12.68;;
45342;SDS011;31077;50.872;4.352;2023-02-10T07:37:45;15.52;;;12.95;;
45342;SDS011;31077;50.872;4.352;2023-02-10T07:40:11;19.63;;;13.63;;
45342;SDS011;31077;50.872;4.352;2023-02-10T07:42:37;14.75;;;12.45;;
45342;SDS011;31077;50.872;4.352;2023-02-10T07:45:03;19.90;;;13.70;;
45342;SDS011;31077;50.872;4.352;2023-02-10T07:47:29;17.50;;;13.63;;
45342;SDS011;31077;50.872;4.352;2023-02-10T07:49:55;17.25;;;13.48;;
45342;SDS011;31077;50.872;4.352;2023-02-10T07:52:21;18.17;;;13.93;;
45342;SDS011;31077;50.872;4.352;2023-02-10T07:54:48;18.92;;;13.68;;
45342;SDS011;31077;50.872;4.352;2023-02-10T07:57:14;16.15;;;12.65;;
45342;SDS011;31077;50.872;4.352;2023-02-10T07:59:40;17.10;;;13.95;;
45342;SDS011;31077;50.872;4.352;2023-02-10T08:02:07;19.35;;;13.65;;
45342;SDS011;31077;50.872;4.352;2023-02-10T08:04:36;17.25;;;13.23;;
45342;SDS011;31077;50.872;4.352;2023-02-10T08:07:02;15.70;;;13.15;;
45342;SDS011;31077;50.872;4.352;2023-02-10T08:09:28;14.77;;;12.20;;
45342;SDS011;31077;50.872;4.352;2023-02-10T08:11:54;17.55;;;13.57;;
45342;SDS011;31077;50.872;4.352;2023-02-10T08:14:19;16.48;;;13.18;;
45342;SDS011;31077;50.872;4.352;2023-02-10T08:16:45;21.98;;;14.73;;
45342;SDS011;31077;50.872;4.352;2023-02-10T08:19:11;16.48;;;13.15;;
45342;SDS011;31077;50.872;4.352;2023-02-10T08:21:37;14.52;;;12.02;;
45342;SDS011;31077;50.872;4.352;2023-02-10T08:24:03;17.15;;;13.13;;
45342;SDS011;31077;50.872;4.352;2023-02-10T08:26:29;17.35;;;12.60;;
45342;SDS011;31077;50.872;4.352;2023-02-10T08:28:56;21.25;;;14.23;;
45342;SDS011;31077;50.872;4.352;2023-02-10T08:31:24;18.90;;;13.90;;
45342;SDS011;31077;50.872;4.352;2023-02-10T08:33:50;17.05;;;13.80;;
45342;SDS011;31077;50.872;4.352;2023-02-10T08:36:16;18.10;;;14.30;;
45342;SDS011;31077;50.872;4.352;2023-02-10T08:38:44;17.15;;;13.30;;
45342;SDS011;31077;50.872;4.352;2023-02-10T08:41:11;15.77;;;13.35;;
45342;SDS011;31077;50.872;4.352;2023-02-10T08:43:36;18.30;;;14.52;;
45342;SDS011;31077;50.872;4.352;2023-02-10T08:46:03;16.40;;;13.77;;
45342;SDS011;31077;50.872;4.352;2023-02-10T08:48:29;17.33;;;13.80;;
45342;SDS011;31077;50.872;4.352;2023-02-10T08:50:56;18.65;;;13.95;;
45342;SDS011;31077;50.872;4.352;2023-02-10T08:53:23;18.35;;;14.38;;
45342;SDS011;31077;50.872;4.352;2023-02-10T08:55:55;20.48;;;15.18;;
45342;SDS011;31077;50.872;4.352;2023-02-10T08:58:22;19.75;;;13.77;;
45342;SDS011;31077;50.872;4.352;2023-02-10T09:00:48;20.80;;;15.15;;
45342;SDS011;31077;50.872;4.352;2023-02-10T09:03:14;17.30;;;14.77;;
45342;SDS011;31077;50.872;4.352;2023-02-10T09:05:40;18.30;;;14.93;;
45342;SDS011;31077;50.872;4.352;2023-02-10T09:08:06;21.30;;;14.35;;
45342;SDS011;31077;50.872;4.352;2023-02-10T09:10:33;22.17;;;14.88;;
45342;SDS011;31077;50.872;4.352;2023-02-10T09:12:59;22.08;;;16.00;;
45342;SDS011;31077;50.872;4.352;2023-02-10T09:15:25;19.75;;;14.02;;
45342;SDS011;31077;50.872;4.352;2023-02-10T09:17:51;19.38;;;15.40;;
45342;SDS011;31077;50.872;4.352;2023-02-10T09:20:16;20.70;;;14.63;;
45342;SDS011;31077;50.872;4.352;2023-02-10T09:22:42;19.15;;;15.40;;
45342;SDS011;31077;50.872;4.352;2023-02-10T09:25:09;22.27;;;15.50;;
45342;SDS011;31077;50.872;4.352;2023-02-10T09:27:35;21.20;;;15.73;;
45342;SDS011;31077;50.872;4.352;2023-02-10T09:30:00;19.67;;;14.52;;
45342;SDS011;31077;50.872;4.352;2023-02-10T09:32:26;23.35;;;16.73;;
45342;SDS011;31077;50.872;4.352;2023-02-10T09:34:53;24.42;;;16.25;;
45342;SDS011;31077;50.872;4.352;2023-02-10T09:37:19;21.42;;;15.65;;
45342;SDS011;31077;50.872;4.352;2023-02-10T09:39:46;23.45;;;16.33;;
45342;SDS011;31077;50.872;4.352;2023-02-10T09:45:18;23.80;;;16.45;;
45342;SDS011;31077;50.872;4.352;2023-02-10T09:47:51;22.73;;;16.13;;
45342;SDS011;31077;50.872;4.352;2023-02-10T09:50:30;23.27;;;16.08;;
45342;SDS011;31077;50.872;4.352;2023-02-10T09:53:20;26.00;;;15.40;;
45342;SDS011;31077;50.872;4.352;2023-02-10T09:55:59;20.73;;;15.90;;
45342;SDS011;31077;50.872;4.352;2023-02-10T09:58:31;22.67;;;15.43;;
45342;SDS011;31077;50.872;4.352;2023-02-10T10:01:18;20.45;;;14.38;;
45342;SDS011;31077;50.872;4.352;2023-02-10T10:04:18;22.42;;;14.93;;
45342;SDS011;31077;50.872;4.352;2023-02-10T10:06:51;24.23;;;15.63;;
45342;SDS011;31077;50.872;4.352;2023-02-10T10:09:30;21.33;;;14.65;;
45342;SDS011;31077;50.872;4.352;2023-02-10T10:12:02;22.55;;;15.48;;
45342;SDS011;31077;50.872;4.352;2023-02-10T10:14:29;22.23;;;15.52;;
45342;SDS011;31077;50.872;4.352;2023-02-10T10:19:48;23.65;;;16.08;;
45342;SDS011;31077;50.872;4.352;2023-02-10T10:31:27;26.38;;;17.42;;
45342;SDS011;31077;50.872;4.352;2023-02-10T10:36:36;24.83;;;17.63;;
45342;SDS011;31077;50.872;4.352;2023-02-10T10:39:33;28.15;;;16.65;;
45342;SDS011;31077;50.872;4.352;2023-02-10T10:42:03;26.92;;;17.42;;
45342;SDS011;31077;50.872;4.352;2023-02-10T10:44:48;22.33;;;15.77;;
45342;SDS011;31077;50.872;4.352;2023-02-10T10:50:04;23.27;;;16.15;;
45342;SDS011;31077;50.872;4.352;2023-02-10T10:52:32;19.80;;;14.23;;
45342;SDS011;31077;50.872;4.352;2023-02-10T10:55:03;23.98;;;15.10;;
45342;SDS011;31077;50.872;4.352;2023-02-10T10:57:33;20.30;;;14.93;;
45342;SDS011;31077;50.872;4.352;2023-02-10T11:00:19;22.27;;;15.38;;
45342;SDS011;31077;50.872;4.352;2023-02-10T11:05:19;20.95;;;15.45;;
45342;SDS011;31077;50.872;4.352;2023-02-10T11:07:48;21.13;;;14.10;;
45342;SDS011;31077;50.872;4.352;2023-02-10T11:10:22;21.08;;;14.65;;
45342;SDS011;31077;50.872;4.352;2023-02-10T11:13:19;21.58;;;13.40;;
45342;SDS011;31077;50.872;4.352;2023-02-10T11:16:01;18.95;;;13.73;;
45342;SDS011;31077;50.872;4.352;2023-02-10T11:18:27;20.17;;;14.27;;
45342;SDS011;31077;50.872;4.352;2023-02-10T11:20:55;20.42;;;13.65;;
45342;SDS011;31077;50.872;4.352;2023-02-10T11:23:23;20.63;;;13.68;;
45342;SDS011;31077;50.872;4.352;2023-02-10T11:26:02;21.13;;;12.93;;
45342;SDS011;31077;50.872;4.352;2023-02-10T11:28:41;19.75;;;13.00;;
45342;SDS011;31077;50.872;4.352;2023-02-10T11:33:54;18.42;;;11.73;;
45342;SDS011;31077;50.872;4.352;2023-02-10T11:36:33;17.65;;;11.63;;
45342;SDS011;31077;50.872;4.352;2023-02-10T11:39:05;15.93;;;11.02;;
45342;SDS011;31077;50.872;4.352;2023-02-10T11:41:41;16.67;;;11.57;;
45342;SDS011;31077;50.872;4.352;2023-02-10T11:44:24;14.90;;;10.80;;
45342;SDS011;31077;50.872;4.352;2023-02-10T11:47:01;16.02;;;11.65;;
45342;SDS011;31077;50.872;4.352;2023-02-10T11:52:00;21.70;;;10.77;;
45342;SDS011;31077;50.872;4.352;2023-02-10T11:54:27;16.33;;;10.75;;
45342;SDS011;31077;50.872;4.352;2023-02-10T11:57:08;18.77;;;9.93;;
45342;SDS011;31077;50.872;4.352;2023-02-10T12:01:10;16.60;;;10.40;;
45342;SDS011;31077;50.872;4.352;2023-02-10T12:06:18;17.23;;;9.60;;
45342;SDS011;31077;50.872;4.352;2023-02-10T12:26:58;13.45;;;9.68;;
45342;SDS011;31077;50.872;4.352;2023-02-10T12:38:26;11.35;;;8.68;;
45342;SDS011;31077;50.872;4.352;2023-02-10T12:52:00;14.13;;;8.73;;
45342;SDS011;31077;50.872;4.352;2023-02-10T12:54:50;12.60;;;8.55;;
45342;SDS011;31077;50.872;4.352;2023-02-10T12:57:41;11.98;;;9.07;;
45342;SDS011;31077;50.872;4.352;2023-02-10T13:00:16;11.32;;;8.63;;
45342;SDS011;31077;50.872;4.352;2023-02-10T13:03:09;14.43;;;9.25;;
45342;SDS011;31077;50.872;4.352;2023-02-10T13:05:52;11.40;;;8.98;;
45342;SDS011;31077;50.872;4.352;2023-02-10T13:08:29;11.77;;;9.57;;
45342;SDS011;31077;50.872;4.352;2023-02-10T13:11:48;12.70;;;9.45;;
45342;SDS011;31077;50.872;4.352;2023-02-10T13:13:59;17.13;;;8.90;;
45342;SDS011;31077;50.872;4.352;2023-02-10T13:16:28;12.93;;;9.40;;
45342;SDS011;31077;50.872;4.352;2023-02-10T13:19:07;12.50;;;9.43;;
45342;SDS011;31077;50.872;4.352;2023-02-10T13:21:47;12.27;;;9.77;;
45342;SDS011;31077;50.872;4.352;2023-02-10T13:30:32;11.93;;;8.35;;
45342;SDS011;31077;50.872;4.352;2023-02-10T13:36:17;13.15;;;8.88;;
45342;SDS011;31077;50.872;4.352;2023-02-10T13:38:50;11.25;;;8.23;;
45342;SDS011;31077;50.872;4.352;2023-02-10T13:41:25;11.63;;;8.45;;
45342;SDS011;31077;50.872;4.352;2023-02-10T13:44:19;14.63;;;9.57;;
45342;SDS011;31077;50.872;4.352;2023-02-10T13:52:52;12.80;;;8.95;;
45342;SDS011;31077;50.872;4.352;2023-02-10T13:55:28;17.67;;;9.45;;
45342;SDS011;31077;50.872;4.352;2023-02-10T14:00:51;11.43;;;8.13;;
45342;SDS011;31077;50.872;4.352;2023-02-10T14:03:23;15.52;;;8.65;;
45342;SDS011;31077;50.872;4.352;2023-02-10T14:05:52;13.77;;;8.25;;
45342;SDS011;31077;50.872;4.352;2023-02-10T14:11:06;12.02;;;7.93;;
45342;SDS011;31077;50.872;4.352;2023-02-10T14:13:57;11.60;;;8.40;;
45342;SDS011;31077;50.872;4.352;2023-02-10T14:16:29;14.23;;;9.80;;
45342;SDS011;31077;50.872;4.352;2023-02-10T14:19:47;13.52;;;8.65;;
45342;SDS011;31077;50.872;4.352;2023-02-10T14:22:02;14.20;;;9.55;;
45342;SDS011;31077;50.872;4.352;2023-02-10T14:24:31;15.18;;;9.52;;
45342;SDS011;31077;50.872;4.352;2023-02-10T14:27:01;11.80;;;8.55;;
45342;SDS011;31077;50.872;4.352;2023-02-10T14:29:29;13.73;;;9.82;;
45342;SDS011;31077;50.872;4.352;2023-02-10T14:32:02;14.07;;;9.32;;
45342;SDS011;31077;50.872;4.352;2023-02-10T14:34:31;12.73;;;8.60;;
45342;SDS011;31077;50.872;4.352;2023-02-10T14:37:12;14.77;;;9.15;;
45342;SDS011;31077;50.872;4.352;2023-02-10T14:39:48;14.02;;;9.32;;
45342;SDS011;31077;50.872;4.352;2023-02-10T14:42:15;17.55;;;9.90;;
45342;SDS011;31077;50.872;4.352;2023-02-10T14:44:45;14.13;;;9.70;;
45342;SDS011;31077;50.872;4.352;2023-02-10T14:47:20;12.80;;;9.30;;
45342;SDS011;31077;50.872;4.352;2023-02-10T14:49:56;12.48;;;9.00;;
45342;SDS011;31077;50.872;4.352;2023-02-10T14:52:29;17.92;;;8.90;;
45342;SDS011;31077;50.872;4.352;2023-02-10T14:54:56;13.30;;;9.68;;
45342;SDS011;31077;50.872;4.352;2023-02-10T14:57:23;14.93;;;9.48;;
45342;SDS011;31077;50.872;4.352;2023-02-10T14:59:53;16.33;;;10.35;;
45342;SDS011;31077;50.872;4.352;2023-02-10T15:02:30;11.77;;;9.10;;
45342;SDS011;31077;50.872;4.352;2023-02-10T15:04:59;11.77;;;9.13;;
45342;SDS011;31077;50.872;4.352;2023-02-10T15:07:28;28.67;;;10.85;;
45342;SDS011;31077;50.872;4.352;2023-02-10T15:10:12;13.57;;;9.50;;
45342;SDS011;31077;50.872;4.352;2023-02-10T15:12:58;22.00;;;10.65;;
45342;SDS011;31077;50.872;4.352;2023-02-10T15:15:40;16.63;;;9.85;;
45342;SDS011;31077;50.872;4.352;2023-02-10T15:20:38;17.35;;;9.10;;
45342;SDS011;31077;50.872;4.352;2023-02-10T15:25:40;15.48;;;10.55;;
45342;SDS011;31077;50.872;4.352;2023-02-10T15:33:30;13.93;;;9.50;;
45342;SDS011;31077;50.872;4.352;2023-02-10T15:36:19;16.88;;;10.40;;
45342;SDS011;31077;50.872;4.352;2023-02-10T15:41:36;15.07;;;9.73;;
45342;SDS011;31077;50.872;4.352;2023-02-10T15:46:42;18.15;;;11.35;;
45342;SDS011;31077;50.872;4.352;2023-02-10T15:49:10;13.88;;;10.38;;
45342;SDS011;31077;50.872;4.352;2023-02-10T15:51:39;20.02;;;11.32;;
45342;SDS011;31077;50.872;4.352;2023-02-10T15:54:15;14.32;;;9.98;;
45342;SDS011;31077;50.872;4.352;2023-02-10T15:56:53;15.65;;;10.68;;
45342;SDS011;31077;50.872;4.352;2023-02-10T15:59:23;18.05;;;11.05;;
45342;SDS011;31077;50.872;4.352;2023-02-10T16:01:53;23.15;;;12.00;;
45342;SDS011;31077;50.872;4.352;2023-02-10T16:04:23;23.35;;;11.35;;
45342;SDS011;31077;50.872;4.352;2023-02-10T16:06:50;19.65;;;11.85;;
45342;SDS011;31077;50.872;4.352;2023-02-10T16:09:16;20.73;;;11.55;;
45342;SDS011;31077;50.872;4.352;2023-02-10T16:11:42;19.38;;;12.73;;
45342;SDS011;31077;50.872;4.352;2023-02-10T16:14:08;20.75;;;11.65;;
45342;SDS011;31077;50.872;4.352;2023-02-10T16:16:34;17.23;;;11.63;;
45342;SDS011;31077;50.872;4.352;2023-02-10T16:19:03;19.02;;;12.65;;
45342;SDS011;31077;50.872;4.352;2023-02-10T16:21:31;18.95;;;12.25;;
45342;SDS011;31077;50.872;4.352;2023-02-10T16:23:56;18.27;;;12.48;;
45342;SDS011;31077;50.872;4.352;2023-02-10T16:26:23;21.63;;;12.88;;
45342;SDS011;31077;50.872;4.352;2023-02-10T16:28:49;22.50;;;11.93;;
45342;SDS011;31077;50.872;4.352;2023-02-10T16:31:16;18.55;;;12.18;;
45342;SDS011;31077;50.872;4.352;2023-02-10T16:33:44;30.65;;;12.25;;
45342;SDS011;31077;50.872;4.352;2023-02-10T16:36:14;18.52;;;11.98;;
45342;SDS011;31077;50.872;4.352;2023-02-10T16:38:43;21.98;;;12.32;;
45342;SDS011;31077;50.872;4.352;2023-02-10T16:41:09;22.23;;;13.43;;
45342;SDS011;31077;50.872;4.352;2023-02-10T16:43:35;22.02;;;12.85;;
45342;SDS011;31077;50.872;4.352;2023-02-10T16:46:01;20.88;;;13.07;;
45342;SDS011;31077;50.872;4.352;2023-02-10T16:48:27;19.55;;;12.30;;
45342;SDS011;31077;50.872;4.352;2023-02-10T16:50:53;17.75;;;12.10;;